Corpus Christi Army Depot, Texas
Current Conditions -  °F | °C
As of 2:56 PM on Tuesday 21 Oct 2014 (Local Time) from KNGP Reporting Station
Scattered Clouds Scattered Clouds  
Wind Chill: 82°   Ceiling: Unl
Heat Index: 87°   Visibility: 10mi
Dew Point: 72°   Wind: 18mph
Humidity: 71%   Direction: 60°ENE
Pressure: 29.94"   Gusts: NA
Location:  27.6657°N, 97.1897°W
Report Text: KNGP 211956Z 06016KT 10SM FEW024 FEW032 SCT180 SCT250 28/22 A2994 RMK AO2 SLP139 T02780222
Loading
Personal Weather Stations






























Interactive Weather Map
Tropical Storm Tracking
New forecast layout! Learn more

10-Day Weather Forecast

Advertisements
Track Severe Weather on mobile